Time;durP1;ratioP1;P1;durP2;ratioP2;P2;SDS_P1;SDS_P2;PMS_P1;PMS_P2;Temp;Humidity;BMP_temperature;BMP_pressure;BME280_temperature;BME280_humidity;BME280_pressure;Samples;Min_cycle;Max_cycle;Signal;HPM_P1;HPM_P2
2023/05/07 00:00:08;;;;;;;15.38;13.88;;;;;;;12.30;100.00;101485.44;5092596;28;20460;-51
2023/05/07 00:02:33;;;;;;;15.82;14.23;;;;;;;12.29;100.00;101489.75;5092043;28;20038;-52
2023/05/07 00:04:58;;;;;;;16.67;14.98;;;;;;;12.37;100.00;101484.81;5092128;28;20103;-51
2023/05/07 00:07:24;;;;;;;15.38;13.80;;;;;;;12.39;100.00;101488.31;5092541;28;20065;-50
2023/05/07 00:09:49;;;;;;;15.55;14.15;;;;;;;12.42;100.00;101492.72;5092210;28;20399;-50
2023/05/07 00:12:14;;;;;;;15.20;13.70;;;;;;;12.43;100.00;101492.75;5091976;28;20028;-49
2023/05/07 00:14:41;;;;;;;15.20;13.60;;;;;;;12.39;100.00;101490.91;5092191;28;20069;-51
2023/05/07 00:17:07;;;;;;;14.93;13.45;;;;;;;12.42;100.00;101484.94;5091595;28;20577;-52
2023/05/07 00:19:32;;;;;;;15.95;13.57;;;;;;;12.46;100.00;101486.81;5092112;28;20112;-52
2023/05/07 00:21:58;;;;;;;15.00;13.27;;;;;;;12.47;100.00;101488.56;5092618;28;20507;-49
2023/05/07 00:24:24;;;;;;;15.55;13.55;;;;;;;12.47;100.00;101473.94;5091372;28;20029;-48
2023/05/07 00:26:50;;;;;;;15.00;13.57;;;;;;;12.47;100.00;101481.69;5092810;28;20543;-52
2023/05/07 00:29:15;;;;;;;18.48;14.40;;;;;;;12.46;100.00;101474.78;5093054;28;20114;-51
2023/05/07 00:31:40;;;;;;;17.17;14.40;;;;;;;12.46;100.00;101472.19;5095500;28;20532;-50
2023/05/07 00:34:06;;;;;;;15.02;13.45;;;;;;;12.49;100.00;101467.09;5096057;28;20379;-48
2023/05/07 00:36:31;;;;;;;14.98;13.57;;;;;;;12.44;100.00;101471.25;5095937;28;20024;-49
2023/05/07 00:39:00;;;;;;;16.73;14.20;;;;;;;12.46;100.00;101471.28;5095318;28;20043;-49
2023/05/07 00:41:25;;;;;;;16.70;14.93;;;;;;;12.45;100.00;101467.84;5095546;28;20483;-49
2023/05/07 00:43:53;;;;;;;16.63;14.93;;;;;;;12.47;100.00;101463.59;5095754;28;20034;-50
2023/05/07 00:46:22;;;;;;;21.00;16.08;;;;;;;12.48;100.00;101470.50;5095125;28;20024;-49
2023/05/07 00:48:48;;;;;;;19.58;16.38;;;;;;;12.45;100.00;101465.25;5095932;28;20023;-48
2023/05/07 00:51:14;;;;;;;17.98;15.43;;;;;;;12.47;100.00;101457.53;5095629;28;20028;-49
2023/05/07 00:53:39;;;;;;;19.08;15.75;;;;;;;12.45;100.00;101460.09;5095005;28;20384;-52
2023/05/07 00:56:06;;;;;;;19.38;17.38;;;;;;;12.48;100.00;101459.31;5095582;28;20384;-50
2023/05/07 00:58:32;;;;;;;17.52;15.57;;;;;;;12.47;100.00;101450.69;5095036;28;20506;-52
2023/05/07 01:00:57;;;;;;;17.98;16.05;;;;;;;12.47;100.00;101455.84;5095165;28;20020;-52
2023/05/07 01:03:23;;;;;;;19.33;17.23;;;;;;;12.51;100.00;101456.81;5095473;28;20021;-52
2023/05/07 01:05:49;;;;;;;22.95;16.65;;;;;;;12.51;100.00;101460.28;5095186;28;20028;-49
2023/05/07 01:08:15;;;;;;;19.80;16.85;;;;;;;12.51;100.00;101456.81;5094836;28;20055;-48
2023/05/07 01:10:42;;;;;;;19.17;16.73;;;;;;;12.53;100.00;101457.75;5095523;28;20039;-50
2023/05/07 01:13:10;;;;;;;19.77;16.30;;;;;;;12.57;100.00;101458.72;5095147;28;20028;-51
2023/05/07 01:15:36;;;;;;;19.88;17.80;;;;;;;12.58;100.00;101451.00;5094546;28;20576;-52
2023/05/07 01:18:01;;;;;;;19.98;17.45;;;;;;;12.59;100.00;101449.28;5095425;28;20024;-52
2023/05/07 01:20:27;;;;;;;19.00;17.10;;;;;;;12.61;100.00;101445.06;5094314;28;20023;-52
2023/05/07 01:22:54;;;;;;;21.27;18.15;;;;;;;12.61;100.00;101447.63;5095117;28;20028;-52
2023/05/07 01:25:19;;;;;;;21.58;19.10;;;;;;;12.62;100.00;101446.81;5094749;28;20032;-48
2023/05/07 01:27:45;;;;;;;21.25;18.90;;;;;;;12.63;100.00;101446.00;5094565;28;20361;-49
2023/05/07 01:30:11;;;;;;;21.70;19.40;;;;;;;12.66;100.00;101443.47;5095248;28;20103;-50
2023/05/07 01:33:10;;;;;;;23.90;19.40;;;;;;;12.69;100.00;101433.22;5094705;28;20073;-48
2023/05/07 01:35:40;;;;;;;21.42;18.92;;;;;;;12.70;100.00;101429.81;5079150;28;20036;-47
2023/05/07 01:38:06;;;;;;;22.02;19.52;;;;;;;12.67;100.00;101430.59;5094763;28;20137;-49
2023/05/07 01:40:33;;;;;;;23.75;19.98;;;;;;;12.67;100.00;101429.72;5094063;28;20047;-48
2023/05/07 01:43:00;;;;;;;22.17;19.88;;;;;;;12.65;100.00;101424.50;5094156;28;20020;-51
2023/05/07 01:45:25;;;;;;;22.17;19.30;;;;;;;12.64;100.00;101427.03;5094384;28;20498;-48
2023/05/07 01:47:52;;;;;;;21.73;18.98;;;;;;;12.60;100.00;101425.19;5094416;28;20028;-48
2023/05/07 01:50:19;;;;;;;21.48;19.23;;;;;;;12.60;100.00;101427.78;5093804;28;20031;-48
2023/05/07 01:52:44;;;;;;;22.77;19.23;;;;;;;12.57;100.00;101422.53;5094683;28;20057;-50
2023/05/07 01:55:10;;;;;;;22.67;20.27;;;;;;;12.59;100.00;101428.59;5094271;28;20020;-52
2023/05/07 01:57:35;;;;;;;24.20;21.42;;;;;;;12.62;100.00;101432.16;5093617;28;20511;-48
2023/05/07 02:00:02;;;;;;;25.08;22.25;;;;;;;12.62;100.00;101428.72;5094558;28;20107;-48
2023/05/07 02:02:27;;;;;;;22.73;20.35;;;;;;;12.56;100.00;101420.75;5093810;28;20036;-51
2023/05/07 02:04:53;;;;;;;23.05;20.38;;;;;;;12.57;100.00;101430.28;5093925;28;20475;-53
2023/05/07 02:07:18;;;;;;;23.63;21.23;;;;;;;12.55;100.00;101424.16;5094236;28;20028;-51
2023/05/07 02:09:43;;;;;;;24.08;21.55;;;;;;;12.58;100.00;101424.28;5093349;28;20377;-49
2023/05/07 02:12:09;;;;;;;25.33;22.63;;;;;;;12.55;100.00;101421.59;5094391;28;20020;-52
2023/05/07 02:14:34;;;;;;;25.13;22.52;;;;;;;12.48;100.00;101417.94;5093885;28;20497;-48
2023/05/07 02:16:59;;;;;;;25.80;23.08;;;;;;;12.47;100.00;101418.75;5093410;28;20020;-48
2023/05/07 02:19:24;;;;;;;27.10;24.15;;;;;;;12.43;100.00;101415.19;5093977;28;20375;-48
2023/05/07 02:21:50;;;;;;;26.90;24.00;;;;;;;12.43;100.00;101420.38;5093989;28;20036;-48
2023/05/07 02:24:16;;;;;;;29.52;25.80;;;;;;;12.46;100.00;101420.47;5093179;28;20039;-50
2023/05/07 02:26:41;;;;;;;27.73;24.67;;;;;;;12.42;100.00;101423.81;5093956;28;20020;-47
2023/05/07 02:29:06;;;;;;;28.63;25.80;;;;;;;12.44;100.00;101422.13;5094194;28;20373;-49
2023/05/07 02:31:33;;;;;;;28.52;25.45;;;;;;;12.47;100.00;101423.94;5092930;28;20506;-48
2023/05/07 02:33:59;;;;;;;30.63;27.17;;;;;;;12.49;100.00;101430.03;5093825;28;20093;-48
2023/05/07 02:36:24;;;;;;;28.90;26.00;;;;;;;12.42;100.00;101426.38;5093190;28;20422;-49
2023/05/07 02:38:49;;;;;;;29.85;26.52;;;;;;;12.41;100.00;101434.97;5093381;28;20063;-48
2023/05/07 02:41:15;;;;;;;29.15;26.08;;;;;;;12.38;100.00;101427.09;5093838;28;20437;-47
2023/05/07 02:43:40;;;;;;;31.48;27.15;;;;;;;12.41;100.00;101432.38;5093408;28;20024;-48
2023/05/07 02:46:07;;;;;;;30.67;27.52;;;;;;;12.45;100.00;101428.19;5093008;28;20016;-52
2023/05/07 02:48:33;;;;;;;32.78;29.30;;;;;;;12.47;100.00;101427.41;5093268;28;20057;-52
2023/05/07 02:50:59;;;;;;;33.70;30.10;;;;;;;12.48;100.00;101429.13;5093205;28;20029;-52
2023/05/07 02:53:26;;;;;;;34.67;30.98;;;;;;;12.47;100.00;101427.41;5092953;28;20024;-48
2023/05/07 02:55:56;;;;;;;33.70;30.10;;;;;;;12.47;100.00;101427.41;5093522;28;20032;-48
2023/05/07 02:58:21;;;;;;;33.47;30.02;;;;;;;12.48;100.00;101423.97;5092992;28;20027;-48
2023/05/07 03:00:47;;;;;;;33.60;29.95;;;;;;;12.47;100.00;101431.69;5092837;28;20021;-51
2023/05/07 03:03:13;;;;;;;34.17;30.73;;;;;;;12.46;100.00;101427.34;5093222;28;20035;-51
2023/05/07 03:05:38;;;;;;;35.40;31.45;;;;;;;12.49;100.00;101433.50;5092704;28;20110;-52
2023/05/07 03:08:04;;;;;;;37.05;33.15;;;;;;;12.49;100.00;101428.31;5092763;28;20039;-47
2023/05/07 03:10:29;;;;;;;42.50;32.78;;;;;;;12.48;100.00;101426.56;5093063;28;20035;-47
2023/05/07 03:12:55;;;;;;;37.67;33.13;;;;;;;12.47;100.00;101422.25;5092551;28;20027;-51
2023/05/07 03:15:21;;;;;;;39.50;33.47;;;;;;;12.48;100.00;101423.97;5092919;28;20088;-48
2023/05/07 03:17:46;;;;;;;39.20;34.38;;;;;;;12.48;100.00;101426.56;5093076;28;20357;-48
2023/05/07 03:20:12;;;;;;;37.33;33.55;;;;;;;12.51;100.00;101413.75;5092464;28;20883;-51
2023/05/07 03:22:38;;;;;;;39.30;35.05;;;;;;;12.48;100.00;101426.56;5092860;28;20031;-52
2023/05/07 03:25:04;;;;;;;37.80;33.85;;;;;;;12.51;100.00;101423.19;5093077;28;20024;-48
2023/05/07 03:27:29;;;;;;;40.40;35.15;;;;;;;12.49;100.00;101415.38;5091986;28;20052;-52
2023/05/07 03:29:55;;;;;;;39.38;35.00;;;;;;;12.51;100.00;101415.44;5092780;28;20035;-50
2023/05/07 03:32:20;;;;;;;36.10;32.22;;;;;;;12.47;100.00;101417.06;5092554;28;20032;-49
2023/05/07 03:34:45;;;;;;;36.67;32.90;;;;;;;12.44;100.00;101416.09;5092288;28;20036;-50
2023/05/07 03:37:11;;;;;;;38.88;33.88;;;;;;;12.40;100.00;101415.09;5092792;28;20360;-48
2023/05/07 03:39:36;;;;;;;36.90;33.03;;;;;;;12.34;100.00;101409.75;5092299;28;20078;-51
2023/05/07 03:42:02;;;;;;;38.80;34.63;;;;;;;12.32;100.00;101407.13;5092344;28;20024;-49
2023/05/07 03:44:27;;;;;;;39.20;35.00;;;;;;;12.33;100.00;101407.97;5092575;28;20027;-50
2023/05/07 03:46:52;;;;;;;39.33;34.38;;;;;;;12.36;100.00;101402.94;5092553;28;20020;-49
2023/05/07 03:49:18;;;;;;;37.67;33.55;;;;;;;12.34;100.00;101409.75;5091888;28;20365;-49
2023/05/07 03:51:43;;;;;;;41.55;36.35;;;;;;;12.36;100.00;101408.09;5092930;28;20078;-50
2023/05/07 03:54:08;;;;;;;38.15;34.15;;;;;;;12.28;100.00;101414.75;5092353;28;20040;-50
2023/05/07 03:56:33;;;;;;;43.22;35.25;;;;;;;12.33;100.00;101418.31;5091980;28;20099;-52
2023/05/07 03:59:00;;;;;;;39.53;35.55;;;;;;;12.28;100.00;101415.59;5092757;28;20138;-52
2023/05/07 04:01:25;;;;;;;40.05;35.95;;;;;;;12.31;100.00;101426.03;5091891;28;20032;-51
2023/05/07 04:03:50;;;;;;;41.08;36.70;;;;;;;12.28;100.00;101425.94;5092070;28;20076;-52
2023/05/07 04:06:17;;;;;;;40.78;36.60;;;;;;;12.26;100.00;101429.31;5096265;28;20066;-52
2023/05/07 04:08:42;;;;;;;39.03;34.83;;;;;;;12.27;100.00;101428.50;5096240;28;20040;-53
2023/05/07 04:11:08;;;;;;;39.45;35.25;;;;;;;12.25;100.00;101425.88;5096103;28;20031;-54
2023/05/07 04:13:33;;;;;;;41.50;36.97;;;;;;;12.31;100.00;101432.91;5096285;28;20097;-51
2023/05/07 04:15:58;;;;;;;39.63;35.47;;;;;;;12.32;100.00;101438.13;5096225;28;20024;-52
2023/05/07 04:18:24;;;;;;;43.30;38.80;;;;;;;12.32;100.00;101440.72;5095524;28;20028;-52
2023/05/07 04:20:49;;;;;;;45.15;40.17;;;;;;;12.36;100.00;101449.47;5096582;28;20395;-52
2023/05/07 04:23:15;;;;;;;45.92;41.03;;;;;;;12.37;100.00;101446.03;5095604;28;20031;-51
2023/05/07 04:25:41;;;;;;;47.67;42.03;;;;;;;12.39;100.00;101443.50;5096382;28;20024;-50
2023/05/07 04:28:06;;;;;;;45.67;40.60;;;;;;;12.39;100.00;101444.38;5096253;28;20027;-52
2023/05/07 04:30:32;;;;;;;45.78;40.88;;;;;;;12.43;100.00;101445.34;5095134;28;20074;-53
2023/05/07 04:32:57;;;;;;;45.80;40.90;;;;;;;12.45;100.00;101435.94;5096010;28;20480;-49
2023/05/07 04:35:22;;;;;;;48.42;43.33;;;;;;;12.47;100.00;101436.84;5095971;28;20055;-52
2023/05/07 04:37:48;;;;;;;48.75;42.75;;;;;;;12.47;100.00;101436.84;5095197;28;20051;-53
2023/05/07 04:40:13;;;;;;;46.78;41.88;;;;;;;12.50;100.00;101439.56;5095855;28;20016;-52
2023/05/07 04:42:38;;;;;;;46.42;41.47;;;;;;;12.52;100.00;101443.94;5095395;28;20028;-52
2023/05/07 04:45:05;;;;;;;47.80;42.35;;;;;;;12.55;100.00;101444.84;5095526;28;20043;-52
2023/05/07 04:47:30;;;;;;;48.45;43.30;;;;;;;12.56;100.00;101438.84;5095638;28;20023;-50
2023/05/07 04:49:55;;;;;;;47.60;42.47;;;;;;;12.58;100.00;101450.13;5095723;28;20028;-52
2023/05/07 04:52:20;;;;;;;50.13;43.65;;;;;;;12.60;100.00;101445.88;5094935;28;20028;-52
2023/05/07 04:54:46;;;;;;;50.22;44.92;;;;;;;12.65;100.00;101444.31;5095694;28;20026;-52
2023/05/07 04:57:11;;;;;;;48.90;43.70;;;;;;;12.67;100.00;101445.25;5095528;28;20099;-51
2023/05/07 04:59:36;;;;;;;50.85;43.55;;;;;;;12.68;100.00;101444.41;5094847;28;20371;-52
2023/05/07 05:02:04;;;;;;;49.22;43.90;;;;;;;12.71;100.00;101454.84;5095384;28;20032;-50
2023/05/07 05:04:29;;;;;;;51.05;45.50;;;;;;;12.76;100.00;101455.88;5095252;28;20031;-53
2023/05/07 05:06:54;;;;;;;50.95;45.47;;;;;;;12.80;100.00;101452.53;5095126;28;20032;-52
2023/05/07 05:09:20;;;;;;;52.75;47.03;;;;;;;12.88;100.00;101457.06;5094877;28;20033;-52
2023/05/07 05:11:45;;;;;;;54.75;48.42;;;;;;;12.90;100.00;101458.88;5095041;28;20027;-51
2023/05/07 05:14:10;;;;;;;54.75;48.80;;;;;;;12.99;100.00;101461.72;5094672;28;20083;-52
2023/05/07 05:16:35;;;;;;;54.42;48.80;;;;;;;13.10;100.00;101461.16;5093824;28;20107;-51
2023/05/07 05:19:02;;;;;;;54.17;48.22;;;;;;;13.13;100.00;101462.13;5095061;28;20031;-53
2023/05/07 05:21:27;;;;;;;56.70;50.58;;;;;;;13.22;100.00;101465.81;5094232;28;20490;-53
2023/05/07 05:23:53;;;;;;;58.85;51.60;;;;;;;13.31;100.00;101468.66;5095386;28;20052;-51
2023/05/07 05:26:18;;;;;;;59.85;51.42;;;;;;;13.35;100.00;101462.75;5094791;28;20459;-53
2023/05/07 05:28:44;;;;;;;55.95;50.05;;;;;;;13.46;100.00;101471.72;5094682;28;20099;-52
2023/05/07 05:31:10;;;;;;;55.00;49.10;;;;;;;13.45;100.00;101472.56;5095189;28;20035;-52
2023/05/07 05:33:35;;;;;;;52.80;47.22;;;;;;;13.50;100.00;101468.38;5094112;28;20027;-52
2023/05/07 05:36:00;;;;;;;48.80;43.75;;;;;;;13.53;100.00;101482.25;5095105;28;20028;-51
2023/05/07 05:38:26;;;;;;;44.10;39.50;;;;;;;13.53;100.00;101477.06;5094790;28;20460;-52
2023/05/07 05:40:51;;;;;;;45.00;40.40;;;;;;;13.54;100.00;101479.69;5094201;28;20937;-52
2023/05/07 05:43:16;;;;;;;44.17;39.42;;;;;;;13.57;100.00;101482.38;5094458;28;20113;-51
2023/05/07 05:45:41;;;;;;;42.08;37.63;;;;;;;13.59;100.00;101482.41;5094488;28;20047;-51
2023/05/07 05:48:08;;;;;;;44.85;40.05;;;;;;;13.67;100.00;101491.25;5094305;28;20085;-51
2023/05/07 05:50:35;;;;;;;42.25;37.92;;;;;;;13.71;100.00;101485.34;5094531;28;20099;-53
2023/05/07 05:53:01;;;;;;;42.13;36.92;;;;;;;13.78;100.00;101483.78;5094323;28;20542;-52
2023/05/07 05:55:26;;;;;;;42.13;37.75;;;;;;;13.83;100.00;101493.44;5093820;28;20099;-52
2023/05/07 05:57:51;;;;;;;42.63;38.08;;;;;;;13.96;100.00;101493.78;5094489;28;20087;-52
2023/05/07 06:00:17;;;;;;;40.67;36.42;;;;;;;14.03;100.00;101485.28;5093796;28;20103;-48
2023/05/07 06:02:42;;;;;;;41.30;37.08;;;;;;;14.10;100.00;101486.31;5093961;28;20056;-52
2023/05/07 06:05:08;;;;;;;38.08;33.95;;;;;;;14.12;100.00;101485.53;5094527;28;20024;-52
2023/05/07 06:07:34;;;;;;;35.75;32.22;;;;;;;14.15;100.00;101484.72;5093897;28;20020;-53
2023/05/07 06:10:00;;;;;;;37.10;33.10;;;;;;;14.20;100.00;101483.13;5093675;28;20517;-52
2023/05/07 06:12:25;;;;;;;36.63;32.85;;;;;;;14.20;100.00;101490.91;5093966;28;20444;-51
2023/05/07 06:14:50;;;;;;;36.20;32.47;;;;;;;14.43;100.00;101491.47;5093934;28;20442;-52
2023/05/07 06:17:16;;;;;;;34.67;31.02;;;;;;;14.45;100.00;101494.97;5093294;28;20073;-53
2023/05/07 06:19:41;;;;;;;34.72;31.15;;;;;;;14.61;100.00;101490.16;5094203;28;20024;-52
2023/05/07 06:22:07;;;;;;;34.40;30.83;;;;;;;14.69;100.00;101495.56;5093850;28;20060;-53
2023/05/07 06:24:32;;;;;;;34.03;30.52;;;;;;;14.84;100.00;101497.63;5093141;28;20032;-52
2023/05/07 06:26:58;;;;;;;34.08;30.45;;;;;;;14.87;100.00;101500.28;5093832;28;20013;-52
2023/05/07 06:29:25;;;;;;;31.95;28.65;;;;;;;14.97;100.00;101492.72;5093297;28;20391;-53
2023/05/07 06:31:52;;;;;;;33.88;29.38;;;;;;;15.04;100.00;101500.66;5093341;28;20032;-51
2023/05/07 06:34:17;;;;;;;30.52;27.52;;;;;;;15.06;100.00;101502.44;5093704;28;20112;-53
2023/05/07 06:36:42;;;;;;;31.88;28.60;;;;;;;15.10;100.00;101504.25;5093585;28;20538;-52
2023/05/07 06:39:07;;;;;;;32.78;29.27;;;;;;;15.15;100.00;101500.03;5093209;28;20062;-52
2023/05/07 06:41:34;;;;;;;31.80;28.58;;;;;;;15.27;100.00;101509.84;5093404;28;20035;-53
2023/05/07 06:43:59;;;;;;;31.38;28.20;;;;;;;15.18;100.00;101506.16;5092752;28;20023;-52
2023/05/07 06:46:25;;;;;;;32.33;28.75;;;;;;;15.29;100.00;101502.06;5093204;28;20028;-52
2023/05/07 06:48:50;;;;;;;32.45;28.75;;;;;;;15.33;100.00;101503.88;5093475;28;20016;-53
2023/05/07 06:51:15;;;;;;;31.70;27.75;;;;;;;15.41;100.00;101497.09;5092822;28;20020;-52
2023/05/07 06:53:41;;;;;;;29.88;26.90;;;;;;;15.49;100.00;101512.84;5093635;28;20028;-54
2023/05/07 06:56:06;;;;;;;29.35;26.40;;;;;;;15.52;100.00;101504.22;5093296;28;20058;-53
2023/05/07 06:58:31;;;;;;;28.38;25.38;;;;;;;15.47;100.00;101515.41;5092587;28;20376;-52
2023/05/07 07:00:57;;;;;;;30.42;26.95;;;;;;;15.57;100.00;101510.41;5093252;28;20063;-50
2023/05/07 07:03:22;;;;;;;30.67;27.35;;;;;;;15.59;100.00;101521.69;5092865;28;20016;-53
2023/05/07 07:05:51;;;;;;;29.30;26.35;;;;;;;15.47;100.00;101520.59;5092913;28;20391;-54
2023/05/07 07:08:17;;;;;;;31.95;28.55;;;;;;;15.51;100.00;101523.28;5092655;28;20472;-52
2023/05/07 07:10:43;;;;;;;30.50;27.27;;;;;;;15.47;100.00;101520.59;5093281;28;20072;-54
2023/05/07 07:13:08;;;;;;;30.48;27.25;;;;;;;15.43;100.00;101517.94;5092605;28;20450;-52
2023/05/07 07:15:33;;;;;;;30.08;26.88;;;;;;;15.33;100.00;101522.06;5092673;28;20032;-54
2023/05/07 07:17:58;;;;;;;29.98;26.83;;;;;;;15.23;100.00;101522.69;5093069;28;20451;-54
2023/05/07 07:20:24;;;;;;;30.13;27.10;;;;;;;15.23;100.00;101520.97;5092462;28;20020;-53
2023/05/07 07:22:49;;;;;;;30.23;27.25;;;;;;;15.39;100.00;101519.59;5092999;28;20035;-49
2023/05/07 07:25:14;;;;;;;30.73;27.65;;;;;;;15.37;100.00;101525.59;5092870;28;20028;-52
2023/05/07 07:27:40;;;;;;;30.27;26.98;;;;;;;15.43;100.00;101526.59;5092242;28;20410;-50
2023/05/07 07:30:06;;;;;;;28.92;25.98;;;;;;;15.44;100.00;101530.94;5092816;28;20097;-53
2023/05/07 07:32:33;;;;;;;30.92;27.83;;;;;;;15.55;100.00;101519.91;5092281;28;20024;-54
2023/05/07 07:34:58;;;;;;;32.10;28.90;;;;;;;15.55;100.00;101519.91;5092577;28;20050;-53
2023/05/07 07:37:25;;;;;;;30.52;27.08;;;;;;;15.69;100.00;101533.16;5092783;28;20028;-48
2023/05/07 07:39:50;;;;;;;30.47;27.43;;;;;;;15.79;100.00;101530.75;5092074;28;20024;-49
2023/05/07 07:42:16;;;;;;;30.85;27.73;;;;;;;15.87;100.00;101533.53;5091995;28;20297;-50
2023/05/07 07:44:41;;;;;;;31.00;27.80;;;;;;;16.15;100.00;101543.56;5092730;28;20028;-50
2023/05/07 07:47:06;;;;;;;29.35;26.42;;;;;;;16.15;100.00;101538.38;5092736;28;20360;-54
2023/05/07 07:49:31;;;;;;;29.48;26.48;;;;;;;16.27;100.00;101543.78;5092071;28;20498;-50
2023/05/07 07:51:59;;;;;;;29.00;26.10;;;;;;;16.21;100.00;101539.34;5092673;28;20020;-50
2023/05/07 07:54:24;;;;;;;28.40;25.48;;;;;;;16.32;100.00;101552.56;5092044;28;20056;-51
2023/05/07 07:56:50;;;;;;;28.48;25.65;;;;;;;16.41;100.00;101551.81;5092798;28;20138;-50
2023/05/07 07:59:18;;;;;;;27.55;24.73;;;;;;;16.56;100.00;101546.00;5092060;28;20028;-48
2023/05/07 08:01:44;;;;;;;27.02;24.42;;;;;;;16.72;100.00;101545.38;5092168;28;20035;-51
2023/05/07 08:04:09;;;;;;;27.10;24.30;;;;;;;16.79;100.00;101541.13;5092911;28;20020;-51
2023/05/07 08:06:35;;;;;;;28.77;24.75;;;;;;;17.00;100.00;101538.00;5092191;28;20028;-51
2023/05/07 08:09:00;;;;;;;27.75;24.33;;;;;;;17.13;100.00;101539.03;5091929;28;20079;-50
2023/05/07 08:11:26;;;;;;;27.45;24.65;;;;;;;17.00;100.00;101545.81;5092453;28;20043;-50
2023/05/07 08:13:51;;;;;;;26.20;23.27;;;;;;;17.38;100.00;101542.84;5092093;28;20417;-51
2023/05/07 08:16:16;;;;;;;25.58;22.98;;;;;;;17.48;100.00;101542.97;5091883;28;20024;-50
2023/05/07 08:18:42;;;;;;;25.38;22.38;;;;;;;17.47;100.00;101542.09;5092607;28;20027;-51
2023/05/07 08:21:07;;;;;;;25.30;21.80;;;;;;;17.65;100.00;101550.97;5092368;28;20058;-51
2023/05/07 08:23:34;;;;;;;23.20;20.88;;;;;;;17.95;100.00;101553.09;5091626;28;20024;-50
2023/05/07 08:26:00;;;;;;;22.43;20.23;;;;;;;18.02;100.00;101559.25;5092398;28;20379;-50
2023/05/07 08:28:25;;;;;;;23.45;21.15;;;;;;;18.06;100.00;101561.00;5091819;28;20855;-47
2023/05/07 08:30:50;;;;;;;22.23;20.05;;;;;;;18.24;100.00;101555.09;5092065;28;20024;-50
2023/05/07 08:33:16;;;;;;;21.33;18.88;;;;;;;18.36;100.00;101559.53;5091972;28;20073;-50
2023/05/07 08:35:41;;;;;;;20.90;18.70;;;;;;;18.42;100.00;101557.00;5092037;28;20028;-50
2023/05/07 08:38:07;;;;;;;21.95;19.73;;;;;;;18.64;100.00;101562.41;5091830;28;20479;-50
2023/05/07 08:40:37;;;;;;;20.17;18.27;;;;;;;18.88;100.00;101559.09;5092003;28;20028;-50
2023/05/07 08:43:05;;;;;;;20.63;18.42;;;;;;;18.85;100.00;101556.44;5091937;28;20056;-50
2023/05/07 08:45:32;;;;;;;19.10;17.10;;;;;;;18.75;100.00;101559.00;5091268;28;20119;-50
2023/05/07 08:48:03;;;;;;;;;;;;;;;19.11;100.00;101560.97;5092745;28;20024;-50
2023/05/07 08:50:29;;;;;;;21.38;18.75;;;;;;;18.74;100.00;101559.84;5091859;28;20359;-50
2023/05/07 08:52:56;;;;;;;19.05;17.08;;;;;;;18.98;99.93;101565.25;5095929;28;20039;-49
2023/05/07 08:55:23;;;;;;;19.35;17.45;;;;;;;19.19;100.00;101565.41;5095334;28;20368;-47
2023/05/07 08:57:48;;;;;;;19.83;17.67;;;;;;;19.30;98.79;101569.81;5095370;28;20024;-51
2023/05/07 09:00:14;;;;;;;18.02;16.27;;;;;;;19.37;98.20;101567.22;5095786;28;20024;-46
2023/05/07 09:02:40;;;;;;;18.75;16.85;;;;;;;19.38;96.81;101566.38;5094884;28;20031;-49
2023/05/07 09:05:06;;;;;;;18.17;16.33;;;;;;;19.46;95.78;101568.13;5094991;28;20491;-49
2023/05/07 09:07:31;;;;;;;18.98;16.85;;;;;;;19.21;95.80;101562.78;5095065;28;20456;-49
2023/05/07 09:09:57;;;;;;;21.42;16.10;;;;;;;19.47;97.14;101565.53;5094945;28;20040;-52
2023/05/07 09:12:23;;;;;;;18.88;16.90;;;;;;;19.54;97.37;101566.44;5094848;28;20091;-52
2023/05/07 09:14:49;;;;;;;18.15;16.23;;;;;;;19.41;95.96;101565.50;5095552;28;20161;-52
2023/05/07 09:17:17;;;;;;;21.40;17.42;;;;;;;19.71;94.56;101569.97;5095197;28;20102;-51
2023/05/07 09:19:45;;;;;;;18.52;16.63;;;;;;;19.58;94.60;101565.56;5094665;28;20383;-51
2023/05/07 09:22:11;;;;;;;17.90;16.13;;;;;;;19.69;94.89;101566.47;5095289;28;20020;-50
2023/05/07 09:24:37;;;;;;;18.75;16.85;;;;;;;19.61;95.02;101565.56;5094576;28;20030;-50
2023/05/07 09:27:08;;;;;;;17.13;15.43;;;;;;;19.60;94.31;101574.31;5094861;28;20026;-50
2023/05/07 09:29:36;;;;;;;17.52;15.40;;;;;;;19.60;94.00;101566.47;5094712;28;20479;-52
2023/05/07 09:32:03;;;;;;;17.95;16.15;;;;;;;19.61;95.79;101573.41;5094809;28;20364;-52
2023/05/07 09:34:30;;;;;;;19.75;16.30;;;;;;;19.37;95.02;101567.22;5094219;28;20023;-52
2023/05/07 09:36:56;;;;;;;17.52;15.50;;;;;;;19.52;94.40;101573.38;5094901;28;20039;-52
2023/05/07 09:39:22;;;;;;;15.63;14.13;;;;;;;19.62;93.17;101567.31;5094352;28;20046;-50
2023/05/07 09:41:49;;;;;;;17.35;15.63;;;;;;;19.52;93.73;101568.16;5094420;28;20060;-50
2023/05/07 09:44:15;;;;;;;18.15;15.35;;;;;;;19.28;92.96;101574.16;5094726;28;20024;-52
2023/05/07 09:46:43;;;;;;;17.58;15.57;;;;;;;19.42;93.11;101570.72;5094741;28;20031;-52
2023/05/07 09:49:16;;;;;;;18.17;16.27;;;;;;;19.53;93.85;101577.75;5094821;28;20035;-51
2023/05/07 09:51:48;;;;;;;17.42;15.57;;;;;;;19.64;93.30;101573.44;5094489;28;20386;-52
2023/05/07 09:54:13;;;;;;;17.00;15.30;;;;;;;19.66;92.49;101571.69;5094207;28;20024;-51
2023/05/07 09:56:41;;;;;;;16.98;15.27;;;;;;;19.77;91.36;101573.47;5094149;28;20423;-51
2023/05/07 09:59:06;;;;;;;;;;;;;;;20.09;95.78;101575.31;5094832;28;20088;-52
2023/05/07 10:01:34;;;;;;;17.00;15.20;;;;;;;19.72;92.72;101582.19;5093139;28;19951;-52
2023/05/07 10:04:02;;;;;;;17.45;15.40;;;;;;;20.10;91.14;101575.31;5094051;28;20028;-52
2023/05/07 10:06:28;;;;;;;17.15;15.38;;;;;;;20.50;91.89;101584.97;5093781;28;20031;-52
2023/05/07 10:08:55;;;;;;;18.15;16.15;;;;;;;20.76;88.92;101584.13;5093533;28;20479;-52
2023/05/07 10:11:21;;;;;;;17.05;15.23;;;;;;;21.67;85.96;101570.78;5094171;28;20138;-48
2023/05/07 10:13:48;;;;;;;16.93;14.90;;;;;;;21.73;82.13;101577.72;5094098;28;20036;-52
2023/05/07 10:16:14;;;;;;;16.48;14.15;;;;;;;22.20;79.67;101577.44;5093666;28;20019;-49
2023/05/07 10:18:40;;;;;;;15.38;13.70;;;;;;;22.22;79.24;101574.81;5093783;28;20031;-52
2023/05/07 10:21:17;;;;;;;14.83;13.13;;;;;;;22.80;76.96;101583.09;5094054;28;20024;-52
2023/05/07 10:23:48;;;;;;;15.23;12.90;;;;;;;22.53;76.53;101585.13;5093613;28;20036;-52
2023/05/07 10:26:15;;;;;;;14.32;12.82;;;;;;;22.11;73.30;101582.75;5094006;28;20024;-51
2023/05/07 10:28:44;;;;;;;17.90;13.88;;;;;;;22.15;79.67;101573.09;5093835;28;20086;-51
2023/05/07 10:31:42;;;;;;;16.00;14.40;;;;;;;21.81;82.72;101578.59;5093256;28;20024;-50
2023/05/07 10:34:10;;;;;;;15.63;14.02;;;;;;;21.71;80.84;101581.22;5093648;28;20035;-53
2023/05/07 10:36:36;;;;;;;16.83;14.85;;;;;;;21.83;79.67;101576.78;5092991;28;20031;-51
2023/05/07 10:39:02;;;;;;;15.85;14.18;;;;;;;21.52;81.52;101582.16;5093606;28;20036;-50
2023/05/07 10:41:27;;;;;;;15.88;14.20;;;;;;;21.31;80.67;101578.75;5093161;28;20024;-52
2023/05/07 10:43:53;;;;;;;15.50;13.90;;;;;;;21.70;83.15;101582.13;5093012;28;20024;-52
2023/05/07 10:46:20;;;;;;;16.45;13.95;;;;;;;21.86;82.09;101580.28;5093227;28;20467;-51
2023/05/07 10:49:01;;;;;;;15.52;13.98;;;;;;;22.06;80.93;101573.19;5093351;28;20356;-52
2023/05/07 10:51:30;;;;;;;17.60;14.82;;;;;;;22.10;80.81;101578.38;5092762;28;20028;-52
2023/05/07 10:54:19;;;;;;;15.85;14.20;;;;;;;21.78;80.32;101574.22;5093546;28;20424;-52
2023/05/07 10:56:44;;;;;;;15.75;14.02;;;;;;;21.86;81.23;101580.28;5080887;28;20064;-53
2023/05/07 10:59:26;;;;;;;18.23;15.32;;;;;;;22.20;80.86;101576.56;5092996;28;20101;-53